createdAt,value
2022-08-25T00:01:46.326Z,71.58
2022-08-25T00:04:16.504Z,71.59
2022-08-25T00:07:02.800Z,71.99
2022-08-25T00:09:32.704Z,72.08
2022-08-25T00:12:01.414Z,71.75
2022-08-25T00:14:36.033Z,72.17
2022-08-25T00:17:06.030Z,72.27
2022-08-25T00:19:35.995Z,72.64
2022-08-25T00:22:04.353Z,72.47
2022-08-25T00:24:32.196Z,72.25
2022-08-25T00:27:01.738Z,72.80
2022-08-25T00:29:30.530Z,72.28
2022-08-25T00:31:58.296Z,72.18
2022-08-25T00:34:29.805Z,72.47
2022-08-25T00:36:57.623Z,72.82
2022-08-25T00:39:25.539Z,72.90
2022-08-25T00:41:57.089Z,73.16
2022-08-25T00:44:27.476Z,73.15
2022-08-25T00:46:58.264Z,72.74
2022-08-25T00:49:58.981Z,72.98
2022-08-25T00:52:31.773Z,73.16
2022-08-25T00:55:21.836Z,73.15
2022-08-25T00:57:56.162Z,73.12
2022-08-25T01:00:36.054Z,73.27
2022-08-25T01:03:05.098Z,73.26
2022-08-25T01:05:34.094Z,73.39
2022-08-25T01:08:03.407Z,73.23
2022-08-25T01:10:37.867Z,73.27
2022-08-25T01:13:20.843Z,72.86
2022-08-25T01:15:50.295Z,73.36
2022-08-25T01:18:17.951Z,73.30
2022-08-25T01:20:53.781Z,73.33
2022-08-25T01:23:22.913Z,73.52
2022-08-25T01:26:03.685Z,73.63
2022-08-25T01:28:31.636Z,73.62
2022-08-25T01:30:59.322Z,73.35
2022-08-25T01:33:27.165Z,73.57
2022-08-25T01:35:54.742Z,73.41
2022-08-25T01:38:23.358Z,73.95
2022-08-25T01:40:50.998Z,73.96
2022-08-25T01:43:37.135Z,73.63
2022-08-25T01:46:04.997Z,73.82
2022-08-25T01:48:33.224Z,73.85
2022-08-25T01:51:00.776Z,73.64
2022-08-25T01:53:33.456Z,73.97
2022-08-25T01:56:11.574Z,74.42
2022-08-25T01:58:42.667Z,74.20
2022-08-25T02:01:15.971Z,74.64
2022-08-25T02:03:46.780Z,74.74
2022-08-25T02:06:20.273Z,74.27
2022-08-25T02:08:58.562Z,74.28
2022-08-25T02:11:26.372Z,74.40
2022-08-25T02:13:54.414Z,74.79
2022-08-25T02:16:28.891Z,74.75
2022-08-25T02:18:57.627Z,74.62
2022-08-25T02:21:25.831Z,74.97
2022-08-25T02:23:53.659Z,75.10
2022-08-25T02:26:21.236Z,75.47
2022-08-25T02:28:51.008Z,75.04
2022-08-25T02:31:21.132Z,75.51
2022-08-25T02:33:49.314Z,75.82
2022-08-25T02:36:17.039Z,75.87
2022-08-25T02:38:45.186Z,75.93
2022-08-25T02:41:19.544Z,75.77
2022-08-25T02:43:48.759Z,76.06
2022-08-25T02:46:20.110Z,76.51
2022-08-25T02:48:53.021Z,76.38
2022-08-25T02:51:22.602Z,76.38
2022-08-25T02:53:50.541Z,76.17
2022-08-25T02:56:19.542Z,76.43
2022-08-25T02:58:47.692Z,76.71
2022-08-25T03:01:16.140Z,76.90
2022-08-25T03:03:46.233Z,76.18
2022-08-25T03:06:17.031Z,76.80
2022-08-25T03:08:45.178Z,76.66
2022-08-25T03:11:12.901Z,76.46
2022-08-25T03:13:40.945Z,76.30
2022-08-25T03:16:11.405Z,76.61
2022-08-25T03:18:42.134Z,76.54
2022-08-25T03:21:12.399Z,77.31
2022-08-25T03:23:41.693Z,77.04
2022-08-25T03:26:28.227Z,77.12
2022-08-25T03:28:55.906Z,77.51
2022-08-25T03:31:27.882Z,77.60
2022-08-25T03:33:55.828Z,77.13
2022-08-25T03:36:23.981Z,77.96
2022-08-25T03:38:52.513Z,77.85
2022-08-25T03:41:24.375Z,78.28
2022-08-25T03:43:56.429Z,78.24
2022-08-25T03:46:30.097Z,78.63
2022-08-25T03:49:00.305Z,78.27
2022-08-25T03:51:35.230Z,78.28
2022-08-25T03:54:04.785Z,78.75
2022-08-25T03:56:32.523Z,79.18
2022-08-25T03:59:00.694Z,79.21
2022-08-25T04:01:28.540Z,78.76
2022-08-25T04:03:56.329Z,78.83
2022-08-25T04:06:23.911Z,79.05
2022-08-25T04:08:52.846Z,79.25
2022-08-25T04:11:23.255Z,78.84
2022-08-25T04:13:52.909Z,78.84
2022-08-25T04:16:23.721Z,78.82
2022-08-25T04:18:54.015Z,79.50
2022-08-25T04:21:22.940Z,79.18
2022-08-25T04:23:52.377Z,79.28
2022-08-25T04:26:25.701Z,79.62
2022-08-25T04:28:53.717Z,79.30
2022-08-25T04:31:22.248Z,79.67
2022-08-25T04:33:50.620Z,79.25
2022-08-25T04:36:19.741Z,79.76
2022-08-25T04:38:49.795Z,79.71
2022-08-25T04:41:20.904Z,79.99
2022-08-25T04:43:49.385Z,79.67
2022-08-25T04:46:20.165Z,79.69
2022-08-25T04:48:50.067Z,79.91
2022-08-25T04:51:20.586Z,79.61
2022-08-25T04:53:48.149Z,79.66
2022-08-25T04:56:18.198Z,79.77
2022-08-25T04:58:49.013Z,80.16
2022-08-25T05:01:20.108Z,79.56
2022-08-25T05:03:52.640Z,79.64
2022-08-25T05:06:20.459Z,79.79
2022-08-25T05:08:48.034Z,79.96
2022-08-25T05:11:18.147Z,79.87
2022-08-25T05:13:51.575Z,80.03
2022-08-25T05:16:21.803Z,80.39
2022-08-25T05:18:51.637Z,80.41
2022-08-25T05:21:23.005Z,80.50
2022-08-25T05:23:54.853Z,80.38
2022-08-25T05:26:23.545Z,80.11
2022-08-25T05:28:54.942Z,79.73
2022-08-25T05:31:24.618Z,79.77
2022-08-25T05:33:53.593Z,80.11
2022-08-25T05:36:22.533Z,79.78
2022-08-25T05:38:50.345Z,79.77
2022-08-25T05:41:21.897Z,79.78
2022-08-25T05:43:50.113Z,79.81
2022-08-25T05:46:19.645Z,79.28
2022-08-25T05:48:47.894Z,79.50
2022-08-25T05:51:16.545Z,79.24
2022-08-25T05:53:46.500Z,79.53
2022-08-25T05:56:14.706Z,79.42
2022-08-25T05:58:43.798Z,79.56
2022-08-25T06:01:39.225Z,79.62
2022-08-25T06:04:07.120Z,79.17
2022-08-25T06:06:34.850Z,79.51
2022-08-25T06:09:04.984Z,79.12
2022-08-25T06:11:32.548Z,79.30
2022-08-25T06:14:00.109Z,79.39
2022-08-25T06:16:27.785Z,79.82
2022-08-25T06:18:55.500Z,79.32
2022-08-25T06:21:23.166Z,79.32
2022-08-25T06:23:50.824Z,79.19
2022-08-25T06:26:21.435Z,79.66
2022-08-25T06:28:51.045Z,79.15
2022-08-25T06:31:19.626Z,79.56
2022-08-25T06:33:47.325Z,79.07
2022-08-25T06:36:15.668Z,78.88
2022-08-25T06:38:43.787Z,79.35
2022-08-25T06:41:12.437Z,78.89
2022-08-25T06:43:47.411Z,78.77
2022-08-25T06:46:20.290Z,77.48
2022-08-25T06:48:49.226Z,75.66
2022-08-25T06:51:19.955Z,73.84
2022-08-25T06:53:49.792Z,72.36
2022-08-25T06:56:20.010Z,70.29
2022-08-25T06:58:49.025Z,68.63
2022-08-25T07:01:23.452Z,66.57
2022-08-25T07:03:59.951Z,65.03
2022-08-25T07:06:29.387Z,63.95
2022-08-25T07:08:57.181Z,63.71
2022-08-25T07:11:24.896Z,63.50
2022-08-25T07:13:52.813Z,62.75
2022-08-25T07:16:21.258Z,61.58
2022-08-25T07:18:49.119Z,60.99
2022-08-25T07:21:17.501Z,60.47
2022-08-25T07:23:47.612Z,59.59
2022-08-25T07:26:36.627Z,59.09
2022-08-25T07:29:09.652Z,59.36
2022-08-25T07:31:37.696Z,59.75
2022-08-25T07:34:25.586Z,59.73
2022-08-25T07:36:55.569Z,59.53
2022-08-25T07:39:24.571Z,58.93
2022-08-25T07:41:52.690Z,58.12
2022-08-25T07:44:24.610Z,56.86
2022-08-25T07:46:56.424Z,56.18
2022-08-25T07:49:26.454Z,54.45
2022-08-25T07:52:06.495Z,53.40
2022-08-25T07:54:38.038Z,52.26
2022-08-25T07:57:08.150Z,51.27
2022-08-25T07:59:40.693Z,49.64
2022-08-25T08:02:18.599Z,50.22
2022-08-25T08:04:49.779Z,50.81
2022-08-25T08:07:23.587Z,50.29
2022-08-25T08:10:18.948Z,50.48
2022-08-25T08:12:43.617Z,50.56
2022-08-25T08:15:11.619Z,50.02
2022-08-25T08:17:39.982Z,49.24
2022-08-25T08:20:10.949Z,48.26
2022-08-25T08:22:41.259Z,48.15
2022-08-25T08:25:11.819Z,48.17
2022-08-25T08:27:47.020Z,48.73
2022-08-25T08:30:15.055Z,49.97
2022-08-25T08:33:08.600Z,50.42
2022-08-25T08:35:30.920Z,51.01
2022-08-25T08:37:58.488Z,51.24
2022-08-25T08:40:26.846Z,51.47
2022-08-25T08:43:18.016Z,50.86
2022-08-25T08:45:53.181Z,50.97
2022-08-25T08:48:40.101Z,49.82
2022-08-25T08:51:14.429Z,49.55
2022-08-25T08:53:48.946Z,49.16
2022-08-25T08:56:25.909Z,48.36
2022-08-25T08:59:06.409Z,46.83
2022-08-25T09:02:00.245Z,44.90
2022-08-25T09:04:49.743Z,43.91
2022-08-25T09:07:22.315Z,43.86
2022-08-25T09:09:52.167Z,44.38
2022-08-25T09:12:40.966Z,45.70
2022-08-25T09:16:02.617Z,46.53
2022-08-25T09:18:51.056Z,47.06
2022-08-25T09:21:32.500Z,47.43
2022-08-25T09:24:09.639Z,47.60
2022-08-25T09:26:50.247Z,47.89
2022-08-25T09:29:25.318Z,48.18
2022-08-25T09:31:58.108Z,49.09
2022-08-25T09:34:32.701Z,49.81
2022-08-25T09:37:01.084Z,50.26
2022-08-25T09:39:28.749Z,51.61
2022-08-25T09:42:00.529Z,52.10
2022-08-25T09:44:31.241Z,53.06
2022-08-25T09:47:18.547Z,54.01
2022-08-25T09:49:49.253Z,54.48
2022-08-25T09:52:41.128Z,54.92
2022-08-25T09:55:09.320Z,55.27
2022-08-25T09:57:43.759Z,55.86
2022-08-25T10:00:15.054Z,56.00
2022-08-25T10:02:45.183Z,56.40
2022-08-25T10:05:26.428Z,57.24
2022-08-25T10:08:00.420Z,56.99
2022-08-25T10:10:33.085Z,56.35
2022-08-25T10:13:06.171Z,55.07
2022-08-25T10:15:37.240Z,53.96
2022-08-25T10:18:22.344Z,52.61
2022-08-25T10:21:10.599Z,50.04
2022-08-25T10:23:56.052Z,47.73
2022-08-25T10:26:38.500Z,45.31
2022-08-25T10:29:10.293Z,43.41
2022-08-25T10:31:49.210Z,42.28
2022-08-25T10:34:29.840Z,41.47
2022-08-25T10:37:33.542Z,41.27
2022-08-25T10:40:04.175Z,41.43
2022-08-25T10:42:38.802Z,42.52
2022-08-25T10:45:44.719Z,43.06
2022-08-25T10:48:34.699Z,44.80
2022-08-25T10:51:08.960Z,46.26
2022-08-25T10:54:03.712Z,47.42
2022-08-25T10:56:41.886Z,48.16
2022-08-25T10:59:55.542Z,48.69
2022-08-25T11:02:41.622Z,48.79
2022-08-25T11:05:36.847Z,50.19
2022-08-25T11:08:43.207Z,50.29
2022-08-25T11:11:21.718Z,50.67
2022-08-25T11:13:58.987Z,51.31
2022-08-25T11:16:38.389Z,51.25
2022-08-25T11:19:15.001Z,51.09
2022-08-25T11:21:47.017Z,51.11
2022-08-25T11:24:28.329Z,51.20
2022-08-25T11:26:57.714Z,51.15
2022-08-25T11:29:33.806Z,51.09
2022-08-25T11:32:02.095Z,50.92
2022-08-25T11:34:37.044Z,50.57
2022-08-25T11:37:25.942Z,50.46
2022-08-25T11:40:13.799Z,50.49
2022-08-25T11:42:50.785Z,50.44
2022-08-25T11:45:43.717Z,50.52
2022-08-25T11:48:15.988Z,50.68
2022-08-25T11:51:09.379Z,50.97
2022-08-25T11:53:42.670Z,51.06
2022-08-25T11:56:30.202Z,51.12
2022-08-25T11:58:57.877Z,51.32
2022-08-25T12:01:40.895Z,51.87
2022-08-25T12:04:44.690Z,51.78
2022-08-25T12:07:20.188Z,51.60
2022-08-25T12:09:53.851Z,51.50
2022-08-25T12:12:30.669Z,51.43
2022-08-25T12:15:22.796Z,50.93
2022-08-25T12:18:09.483Z,50.50
2022-08-25T12:20:57.141Z,49.25
2022-08-25T12:24:04.005Z,48.33
2022-08-25T12:26:46.204Z,46.22
2022-08-25T12:29:29.547Z,44.58
2022-08-25T12:31:59.167Z,42.98
2022-08-25T12:34:59.959Z,40.48
2022-08-25T12:37:27.795Z,39.24
2022-08-25T12:40:02.566Z,38.05
2022-08-25T12:42:30.951Z,36.56
2022-08-25T12:45:25.633Z,35.46
2022-08-25T12:47:54.766Z,34.98
2022-08-25T12:50:47.800Z,34.43
2022-08-25T12:53:44.846Z,33.93
2022-08-25T12:56:47.618Z,34.14
2022-08-25T12:59:21.998Z,35.60
2022-08-25T13:02:26.769Z,37.41
2022-08-25T13:05:12.675Z,38.25
2022-08-25T13:08:04.727Z,38.43
2022-08-25T13:10:42.227Z,38.12
2022-08-25T13:13:34.707Z,37.77
2022-08-25T13:16:07.229Z,37.03
2022-08-25T13:18:37.696Z,36.68
2022-08-25T13:21:07.416Z,36.38
2022-08-25T13:23:38.031Z,36.19
2022-08-25T13:26:06.092Z,36.01
2022-08-25T13:28:37.002Z,35.36
2022-08-25T13:31:16.420Z,35.49
2022-08-25T13:34:19.394Z,35.89
2022-08-25T13:37:07.857Z,35.59
2022-08-25T13:39:55.363Z,35.21
2022-08-25T13:42:28.808Z,34.85
2022-08-25T13:44:57.025Z,35.30
2022-08-25T13:47:43.772Z,35.88
2022-08-25T13:50:18.550Z,36.80
2022-08-25T13:53:12.464Z,38.25
2022-08-25T13:55:51.551Z,38.71
2022-08-25T13:58:38.651Z,38.10
2022-08-25T14:01:49.185Z,37.67
2022-08-25T14:04:50.496Z,37.67
2022-08-25T14:07:22.717Z,37.67
2022-08-25T14:09:57.495Z,38.10
2022-08-25T14:12:37.998Z,39.12
2022-08-25T14:15:11.342Z,40.25
2022-08-25T14:17:41.293Z,40.24
2022-08-25T14:20:25.803Z,41.51
2022-08-25T14:22:58.128Z,41.90
2022-08-25T14:25:28.126Z,41.76
2022-08-25T14:28:16.392Z,41.28
2022-08-25T14:30:49.491Z,42.07
2022-08-25T14:33:22.392Z,42.37
2022-08-25T14:35:53.894Z,43.70
2022-08-25T14:38:23.508Z,44.40
2022-08-25T14:40:51.484Z,44.88
2022-08-25T14:43:23.638Z,45.54
2022-08-25T14:46:02.610Z,46.16
2022-08-25T14:48:39.408Z,46.48
2022-08-25T14:51:07.206Z,46.39
2022-08-25T14:53:35.258Z,45.97
2022-08-25T14:56:09.308Z,45.35
2022-08-25T14:58:51.140Z,45.00
2022-08-25T15:01:28.689Z,44.58
2022-08-25T15:04:22.463Z,42.54
2022-08-25T15:06:57.512Z,41.33
2022-08-25T15:09:26.155Z,41.24
2022-08-25T15:12:01.392Z,40.58
2022-08-25T15:14:33.282Z,40.16
2022-08-25T15:17:03.488Z,39.87
2022-08-25T15:19:31.311Z,39.79
2022-08-25T15:21:59.340Z,40.14
2022-08-25T15:24:28.883Z,40.35
2022-08-25T15:26:59.449Z,39.97
2022-08-25T15:29:30.231Z,40.21
2022-08-25T15:32:00.322Z,40.30
2022-08-25T15:34:29.322Z,40.15
2022-08-25T15:36:58.909Z,40.31
2022-08-25T15:39:27.958Z,40.30
2022-08-25T15:41:57.218Z,40.05
2022-08-25T15:44:29.187Z,40.38
2022-08-25T15:46:59.140Z,40.33
2022-08-25T15:49:29.612Z,40.39
2022-08-25T15:52:00.076Z,40.67
2022-08-25T15:54:28.564Z,40.62
2022-08-25T15:56:58.865Z,40.36
2022-08-25T15:59:28.493Z,40.35
2022-08-25T16:01:56.717Z,40.83
2022-08-25T16:04:27.635Z,41.10
2022-08-25T16:06:55.742Z,41.37
2022-08-25T16:09:24.067Z,41.82
2022-08-25T16:11:55.922Z,41.84
2022-08-25T16:14:26.111Z,41.73
2022-08-25T16:16:58.360Z,41.66
2022-08-25T16:19:28.625Z,41.73
2022-08-25T16:21:57.624Z,42.08
2022-08-25T16:24:25.425Z,42.81
2022-08-25T16:26:56.019Z,43.64
2022-08-25T16:29:24.399Z,44.03
2022-08-25T16:31:53.249Z,44.37
2022-08-25T16:34:24.496Z,44.68
2022-08-25T16:36:53.975Z,44.55
2022-08-25T16:39:23.981Z,44.68
2022-08-25T16:41:52.621Z,44.99
2022-08-25T16:44:22.807Z,45.58
2022-08-25T16:46:54.625Z,46.09
2022-08-25T16:49:24.533Z,46.78
2022-08-25T16:51:56.958Z,47.36
2022-08-25T16:54:45.353Z,47.13
2022-08-25T16:57:13.259Z,47.58
2022-08-25T16:59:42.582Z,47.69
2022-08-25T17:02:12.151Z,47.43
2022-08-25T17:04:41.076Z,47.85
2022-08-25T17:07:08.685Z,48.51
2022-08-25T17:09:36.440Z,48.95
2022-08-25T17:12:05.155Z,49.20
2022-08-25T17:14:33.301Z,49.64
2022-08-25T17:17:01.303Z,49.73
2022-08-25T17:19:29.083Z,50.33
2022-08-25T17:21:58.637Z,50.42
2022-08-25T17:24:29.244Z,50.70
2022-08-25T17:27:01.433Z,51.21
2022-08-25T17:29:29.723Z,51.28
2022-08-25T17:31:58.558Z,51.31
2022-08-25T17:34:27.889Z,51.57
2022-08-25T17:36:56.877Z,51.48
2022-08-25T17:39:25.140Z,51.90
2022-08-25T17:41:52.766Z,51.79
2022-08-25T17:44:20.847Z,52.28
2022-08-25T17:46:49.222Z,52.38
2022-08-25T17:49:17.507Z,52.85
2022-08-25T17:51:45.616Z,52.81
2022-08-25T17:54:14.219Z,53.10
2022-08-25T17:56:41.975Z,52.80
2022-08-25T17:59:10.327Z,53.12
2022-08-25T18:01:40.853Z,53.44
2022-08-25T18:04:17.037Z,53.44
2022-08-25T18:06:46.769Z,53.63
2022-08-25T18:09:15.413Z,53.92
2022-08-25T18:11:43.034Z,54.13
2022-08-25T18:14:11.540Z,54.15
2022-08-25T18:16:39.340Z,54.35
2022-08-25T18:19:09.861Z,54.48
2022-08-25T18:21:38.898Z,54.95
2022-08-25T18:24:08.118Z,55.09
2022-08-25T18:26:36.186Z,55.22
2022-08-25T18:29:04.582Z,55.13
2022-08-25T18:31:32.351Z,55.14
2022-08-25T18:33:59.966Z,55.31
2022-08-25T18:36:28.172Z,55.68
2022-08-25T18:39:14.289Z,55.90
2022-08-25T18:41:45.061Z,55.89
2022-08-25T18:44:12.888Z,56.14
2022-08-25T18:46:45.438Z,56.16
2022-08-25T18:49:15.634Z,56.31
2022-08-25T18:51:45.164Z,56.23
2022-08-25T18:54:22.767Z,56.00
2022-08-25T18:56:53.060Z,56.43
2022-08-25T18:59:23.688Z,56.61
2022-08-25T19:01:53.318Z,56.69
2022-08-25T19:04:28.397Z,56.99
2022-08-25T19:07:01.074Z,57.22
2022-08-25T19:09:30.643Z,57.42
2022-08-25T19:11:59.686Z,57.51
2022-08-25T19:14:27.496Z,57.91
2022-08-25T19:16:58.080Z,57.82
2022-08-25T19:19:26.016Z,58.20
2022-08-25T19:21:53.765Z,58.38
2022-08-25T19:24:21.703Z,58.33
2022-08-25T19:26:53.802Z,58.56
2022-08-25T19:29:22.939Z,58.67
2022-08-25T19:31:51.633Z,58.81
2022-08-25T19:34:30.405Z,58.81
2022-08-25T19:37:01.969Z,59.25
2022-08-25T19:39:34.487Z,59.35
2022-08-25T19:42:03.220Z,59.36
2022-08-25T19:44:31.911Z,59.68
2022-08-25T19:47:00.162Z,59.76
2022-08-25T19:49:31.430Z,60.19
2022-08-25T19:52:00.989Z,60.51
2022-08-25T19:54:46.535Z,60.92
2022-08-25T19:57:28.139Z,61.08
2022-08-25T20:00:09.719Z,61.45
2022-08-25T20:02:40.928Z,61.72
2022-08-25T20:05:08.894Z,61.72
2022-08-25T20:07:36.547Z,61.96
2022-08-25T20:10:07.082Z,61.83
2022-08-25T20:12:35.637Z,61.93
2022-08-25T20:15:04.437Z,61.98
2022-08-25T20:17:32.925Z,62.09
2022-08-25T20:20:04.705Z,62.33
2022-08-25T20:22:33.500Z,62.42
2022-08-25T20:25:13.616Z,62.56
2022-08-25T20:27:53.819Z,62.71
2022-08-25T20:30:25.174Z,62.63
2022-08-25T20:32:54.749Z,62.77
2022-08-25T20:35:26.813Z,63.22
2022-08-25T20:37:56.567Z,62.96
2022-08-25T20:40:27.896Z,63.42
2022-08-25T20:42:57.615Z,63.61
2022-08-25T20:45:25.322Z,63.62
2022-08-25T20:47:53.090Z,63.99
2022-08-25T20:50:22.978Z,64.14
2022-08-25T20:52:51.566Z,64.42
2022-08-25T20:55:19.259Z,64.26
2022-08-25T20:57:47.019Z,64.56
2022-08-25T21:00:16.334Z,64.79
2022-08-25T21:02:46.331Z,65.01
2022-08-25T21:05:14.382Z,65.17
2022-08-25T21:07:42.412Z,65.64
2022-08-25T21:10:14.244Z,65.68
2022-08-25T21:12:43.073Z,65.62
2022-08-25T21:15:12.452Z,65.67
2022-08-25T21:17:40.208Z,65.60
2022-08-25T21:20:08.849Z,65.79
2022-08-25T21:22:38.404Z,65.66
2022-08-25T21:25:07.203Z,65.60
2022-08-25T21:27:34.779Z,65.85
2022-08-25T21:30:02.486Z,65.74
2022-08-25T21:32:30.049Z,65.50
2022-08-25T21:34:58.442Z,65.45
2022-08-25T21:37:26.912Z,65.50
2022-08-25T21:39:54.742Z,65.61
2022-08-25T21:42:24.075Z,66.01
2022-08-25T21:44:52.973Z,65.95
2022-08-25T21:47:21.768Z,66.04
2022-08-25T21:49:51.147Z,66.21
2022-08-25T21:52:19.088Z,66.01
2022-08-25T21:54:46.959Z,66.12
2022-08-25T21:57:15.071Z,66.24
2022-08-25T21:59:43.474Z,66.34
2022-08-25T22:02:13.364Z,66.53
2022-08-25T22:04:42.229Z,66.32
2022-08-25T22:07:11.172Z,66.43
2022-08-25T22:09:40.143Z,66.88
2022-08-25T22:12:08.469Z,66.59
2022-08-25T22:14:36.926Z,66.89
2022-08-25T22:17:06.021Z,67.08
2022-08-25T22:19:36.819Z,67.17
2022-08-25T22:22:06.872Z,67.17
2022-08-25T22:24:34.890Z,67.09
2022-08-25T22:27:03.002Z,67.28
2022-08-25T22:29:30.651Z,67.40
2022-08-25T22:32:00.678Z,67.47
2022-08-25T22:34:34.489Z,67.60
2022-08-25T22:37:03.919Z,67.51
2022-08-25T22:39:34.164Z,67.38
2022-08-25T22:42:03.561Z,67.53
2022-08-25T22:44:31.275Z,67.63
2022-08-25T22:46:58.859Z,67.66
2022-08-25T22:49:29.008Z,67.57
2022-08-25T22:51:56.818Z,67.86
2022-08-25T22:54:25.655Z,67.80
2022-08-25T22:56:54.175Z,68.12
2022-08-25T22:59:22.571Z,68.59
2022-08-25T23:01:52.684Z,68.75
2022-08-25T23:04:22.898Z,68.24
2022-08-25T23:06:52.748Z,68.54
2022-08-25T23:09:21.049Z,68.92
2022-08-25T23:11:51.314Z,69.06
2022-08-25T23:14:20.110Z,69.12
2022-08-25T23:16:50.331Z,68.97
2022-08-25T23:19:18.977Z,69.08
2022-08-25T23:22:06.134Z,69.19
2022-08-25T23:24:33.836Z,68.92
2022-08-25T23:27:04.155Z,69.16
2022-08-25T23:29:34.674Z,69.29
2022-08-25T23:32:02.605Z,69.16
2022-08-25T23:34:30.301Z,69.33
2022-08-25T23:36:58.362Z,69.49
2022-08-25T23:39:26.124Z,69.48
2022-08-25T23:41:53.802Z,69.58
2022-08-25T23:44:23.383Z,69.59
2022-08-25T23:46:53.839Z,69.64
2022-08-25T23:49:23.487Z,69.48
2022-08-25T23:51:52.974Z,69.90
2022-08-25T23:54:21.505Z,69.89
2022-08-25T23:56:51.675Z,69.72
2022-08-25T23:59:24.242Z,69.90
